Jueves, 30 de Octubre del 2014

portal contactenos mapa del sitio buscar Revisar Correo Corporativo

|Reporte METAR por Reginal » ||Reporte TAF por Reginal » ||Reporte METAR, TAF y SIN覲TICO »

Reporte METAR por Regional

|| La Paz || Santa Cruz || Cochabamba || Beni - Pando ||

Informe METAR emitido cada hora.

Regional La Paz

ESTACIÓN

AEROPUERTO

HORA UTC

DESCRIPCIÓN

SLRY

Reyes

14-18S|67-21W

17:00

SLRY 301700Z 34016KT 9999 SCT015 BKN080 31/24 Q1007 A2976 HR67 RWY HUM OPR 1 000M=

SLRQ

Rurrenabaque

14-25S|67-29W

18:00

SLRQ 301800Z 35012KT 9999 SCT017 SCT070 31/26 Q1005 A2970 HR74=

SLAP

Apolo

14-44S|68-24W

17:00

SLAPO 121700Z NIL=

SLSB

San Borja

14-51S|66-44W

18:00

SLSB 301800Z 32010G20KT 9999 SCT020 32/24 Q1006 A2971 HR63 RWY NML=

SLLP

Internaci贸nal El Alto

16-08S|68-10W

17:00

SLLP 301700Z 25006KT 9999 SCT017 17/M08 Q1033 A3052 625.1 P94// HR18 NOSIG=

SLCN

Chara帽a

17-35S|69-25W

-

Mensaje no Recibido

SLOR

Oruro

17-57S|67-04W

17:00

SLOR 301700Z 24004KT 9999 FEW017 19/01 Q1031 A3045 653.3 HR30=

SLUY

Uyuni

20-27S|62-52W

17:00

RTD SLUY 301700Z 33008KT 9999 FEW012 17/M02 Q1029 A3041 655.4 HR37=

Regional Cochabamba

ESTACIÓN

AEROPUERTO

HORA UTC

DESCRIPCIÓN

SLCB

Cochabamba

17-25S|66-10W

18:00

SLCB 301800Z 08004KT 9999 FEW027 FEW030TCU 31/M06 Q1016 A3002 744.8 HR09 TCU N FU NOSIG=

SLSU

Sucre

19-00S|65-17W

18:00

SLSU 301800Z 05014KT 9999 SCT023 FEW033CB SCT200 22/06 Q1021 A3018 HR37 CB ON STN/SW=

SLPO

Potos铆

19-32S|65-43W

18:00

SLPO 301800Z 06007KT 9999 FEW020 18/01 Q1031 A3045 HR34=

SLAG

Monteagudo

19-49S|63-58W

17:00

SLAG 301700Z NIL=

SLVM

Villamontes

21-15S|63-24W

18:00

SLVM 301800Z 18010KT 9999 SCT025 FEW027CB BKN200 35/22 Q1003 A2962 HR49 CB/W/NW=

SLTJ

Tarija

21-33S|64-42W

17:00

SLTJ 301700Z 12010KT 9999 FEW033 FEW036TCU 27/17 Q1013 A2993 HR49 TCU SW FU=

SLYA

Yacuiba

21-57S|63-39W

18:00

SLYA 301800Z 18010KT 9999 SCT025 SCT070 31/22 Q1007 A2974 HR61 FU/CI=

SLBJ

Bermejo

22-46S|64-18W

17:00

SLBJ 301700Z NIL=

Regional Santa Cruz

ESTACIÓN

AEROPUERTO

HORA UTC

DESCRIPCIÓN

SLAS

Ascenci贸n de Guarayos

15-55S|63-09W

17:00

SLAS 301700Z 32012KT 9999 SCT020 BKN070 OVC200 32/24 Q1008 A2977 HR65 RWY NML=

SLCP

Concepci贸n

16-08S|62-01W

17:00

SLCP 301700Z 36014KT 9999 BKN020 30/21 Q1010 A2983 HR58 RWY NML =

SLJV

San Javier

16-16S|62-28W

17:00

SLJV 301700Z 35015KT 9999 SCT017 FEW030CB 30/22 Q1008 A2977 HR61 CB/NW RWY NML=

SLTI

San Mat铆as

16-20S|58-24W

17:00

SLTI 301700Z 36015G25KT 9999 SCT017 BKN070 34/23 Q1013 A2991 HR53 RWY NML=

SLSI

San Ignacio de Velasco

16-23S|60-57W

17:00

SLSI 301700Z 36015KT 9999 SCT017 31/23 Q1009 A2980 HR60 RWY NML =

SLVR

Internaci贸nal Viru Viru

17-38S|63-08W

17:00

SLVR 301700Z 32022G34KT 9999 SCT012 BKN017 28/23 Q1006 A2971 HR74 NOSIG=

SLET

El Trompillo

17-48S|63-10W

17:00

SLET 301700Z 32025G38KT 9999 BKN015 26/22 Q1005 A2969 HR75 NOSIG=

SLJE

San Jos茅 de Chiquitos

17-49S|60-44W

15:00

SLJE 301500Z 34010KT 9999 BKN017 32/23 Q1010 A2983 HR57 RWY NML =

SLRB

Robor茅

18-19S|59-45W

17:00

SLRB 301700Z 36020KT 9999 BKN020 32/23 Q1008 A2977 HR59 RWY NML =

SLVG

Valle Grande

18-28S|64-05W

15:00

SLVG 301500Z 36007KT 9999 FEW027 24/17 Q1019 A3009 HR59 RWY NML =

SLPS

Puerto Su谩rez

18-58S|57-49W

17:00

SLPS 301700Z 06006KT 9999 FEW020 FEW027CB 35/25 Q1006 A2971 HR56 CB/SH NW/NE=

SLCA

Camiri

20-00S|63-31W

17:00

SLCA 301700Z 24005KT 9999 TS SCT036 FEW040CB BKN080 34/17 Q1007 A2974 HR35 CB/SW SE/W/NW TS/W/NW RWY NML=

Regional Beni

ESTACIÓN

AEROPUERTO

HORA UTC

DESCRIPCIÓN

SLGM

Guayaramer铆n

10-49S|65-20W

17:00

SLGM 301700Z 34014KT 9999 SCT017 34/22 Q1009 A2982 HR52 AC=

SLRI

Riberalta

11-00S|66-04W

18:00

SLRI 301800Z 36006KT 8000 VCSH BKN017 FEW020CB BKN200 34/24 Q1007 A2975 HR58 CB SH SE=

SLCO

Cobija

11-02S|68-47W

17:00

SLCO 301700Z 35010KT 8000 VCSH BKN020 FEW023CB BKN200 32/26 Q1008 A2978 981.0 HR68 SH/NE/E CB/W=

SLJO

San Joaquin

13-03S|64-39W

17:00

SLJO 301700Z 32015KT 9999 SCT017 33/24 Q1006 A2973 HR59 RWY NML=

SLMG

San Magdalena

13-15S|64-03W

17:00

SLMG 301700Z 32015KT 9999 BKN017 33/24 Q1008 A2979 HR61 RWY NML=

SLRA

San Ram贸n

13-15S|64-36W

17:00

SLRA 301700Z 32014KT 9999 SCT017 35/22 Q1007 A2974 HR49 RWY NML=

SLBU

Baures

13-39S|63-42W

17:00

SLBU 301700Z 36015KT 9999 BKN017 35/24 Q1007 A2976 HR53 RWY NML=

SLSA

Santa Ana de Yacuma

13-45S|65-26W

18:00

SLSA 301800Z 32018KT 9999 SCT017 FEW023CB 33/23 Q1004 A2965 HR57 AC CB/SH SW=

SLSR

Santa Rosa

14-04S|66-47W

17:00

SLSR 301700Z 35012KT 8000 VCSH BKN017 FEW023CB 31/25 Q1005 A2969 HR73 CB/SH S/SW/W RWY HUM OPR=

SLTR

Trinidad

14-49S|64-54W

17:00

SLTR 301700Z 32015G25KT 9999 FEW017 34/23 Q1006 A2973 988.4 HR53 AC NOSIG=

SLSM

San Ignacio de Moxos

14-57S|65-38W

17:00

SLSM 301700Z 32014KT 9999 BKN015 30/24 Q1005 A2970 HR71 RWY NML=